sensor_id;sensor_type;location;lat;lon;timestamp;temperature;humidity
20672;DHT22;10495;50.922;4.760;2022-10-17T00:02:14;17.80;91.30
20672;DHT22;10495;50.922;4.760;2022-10-17T00:04:40;17.80;91.20
20672;DHT22;10495;50.922;4.760;2022-10-17T00:07:06;17.80;91.20
20672;DHT22;10495;50.922;4.760;2022-10-17T00:09:31;17.80;91.10
20672;DHT22;10495;50.922;4.760;2022-10-17T00:11:57;17.80;91.10
20672;DHT22;10495;50.922;4.760;2022-10-17T00:14:22;17.80;91.10
20672;DHT22;10495;50.922;4.760;2022-10-17T00:16:48;17.80;91.10
20672;DHT22;10495;50.922;4.760;2022-10-17T00:19:13;17.90;91.10
20672;DHT22;10495;50.922;4.760;2022-10-17T00:21:39;17.90;91.00
20672;DHT22;10495;50.922;4.760;2022-10-17T00:24:05;17.90;91.10
20672;DHT22;10495;50.922;4.760;2022-10-17T00:26:31;17.80;91.10
20672;DHT22;10495;50.922;4.760;2022-10-17T00:28:56;17.90;91.20
20672;DHT22;10495;50.922;4.760;2022-10-17T00:31:23;17.80;91.30
20672;DHT22;10495;50.922;4.760;2022-10-17T00:33:49;17.80;91.50
20672;DHT22;10495;50.922;4.760;2022-10-17T00:36:17;17.80;91.40
20672;DHT22;10495;50.922;4.760;2022-10-17T00:38:45;17.80;91.50
20672;DHT22;10495;50.922;4.760;2022-10-17T00:41:13;17.50;92.10
20672;DHT22;10495;50.922;4.760;2022-10-17T00:43:53;17.60;92.00
20672;DHT22;10495;50.922;4.760;2022-10-17T00:46:20;17.80;91.70
20672;DHT22;10495;50.922;4.760;2022-10-17T00:48:48;17.90;91.50
20672;DHT22;10495;50.922;4.760;2022-10-17T00:51:16;18.00;91.60
20672;DHT22;10495;50.922;4.760;2022-10-17T00:53:44;18.00;91.50
20672;DHT22;10495;50.922;4.760;2022-10-17T00:56:10;17.80;91.70
20672;DHT22;10495;50.922;4.760;2022-10-17T00:58:36;18.00;91.50
20672;DHT22;10495;50.922;4.760;2022-10-17T01:01:02;18.00;91.30
20672;DHT22;10495;50.922;4.760;2022-10-17T01:03:28;18.10;91.20
20672;DHT22;10495;50.922;4.760;2022-10-17T01:05:53;18.20;91.20
20672;DHT22;10495;50.922;4.760;2022-10-17T01:08:19;18.20;91.10
20672;DHT22;10495;50.922;4.760;2022-10-17T01:11:04;18.20;91.10
20672;DHT22;10495;50.922;4.760;2022-10-17T01:13:40;18.30;91.30
20672;DHT22;10495;50.922;4.760;2022-10-17T01:16:15;18.30;91.30
20672;DHT22;10495;50.922;4.760;2022-10-17T01:19:18;18.20;91.20
20672;DHT22;10495;50.922;4.760;2022-10-17T01:21:59;18.20;91.20
20672;DHT22;10495;50.922;4.760;2022-10-17T01:27:55;18.00;91.80
20672;DHT22;10495;50.922;4.760;2022-10-17T01:33:45;18.00;91.90
20672;DHT22;10495;50.922;4.760;2022-10-17T01:39:01;18.00;92.10
20672;DHT22;10495;50.922;4.760;2022-10-17T01:44:36;18.00;92.10
20672;DHT22;10495;50.922;4.760;2022-10-17T01:47:14;17.90;92.50
20672;DHT22;10495;50.922;4.760;2022-10-17T01:49:44;17.80;92.60
20672;DHT22;10495;50.922;4.760;2022-10-17T01:52:37;17.90;92.70
20672;DHT22;10495;50.922;4.760;2022-10-17T01:55:19;17.90;92.40
20672;DHT22;10495;50.922;4.760;2022-10-17T01:57:59;17.90;92.50
20672;DHT22;10495;50.922;4.760;2022-10-17T02:00:26;18.00;92.50
20672;DHT22;10495;50.922;4.760;2022-10-17T02:02:57;17.90;92.70
20672;DHT22;10495;50.922;4.760;2022-10-17T02:05:30;18.10;92.40
20672;DHT22;10495;50.922;4.760;2022-10-17T02:07:57;18.10;92.40
20672;DHT22;10495;50.922;4.760;2022-10-17T02:10:44;17.90;92.50
20672;DHT22;10495;50.922;4.760;2022-10-17T02:16:37;18.00;92.80
20672;DHT22;10495;50.922;4.760;2022-10-17T02:25:06;17.90;92.60
20672;DHT22;10495;50.922;4.760;2022-10-17T02:27:44;17.80;92.60
20672;DHT22;10495;50.922;4.760;2022-10-17T02:33:31;17.90;92.80
20672;DHT22;10495;50.922;4.760;2022-10-17T02:36:03;17.90;92.70
20672;DHT22;10495;50.922;4.760;2022-10-17T02:38:31;17.90;92.60
20672;DHT22;10495;50.922;4.760;2022-10-17T02:40:58;17.90;92.70
20672;DHT22;10495;50.922;4.760;2022-10-17T02:43:24;17.90;92.70
20672;DHT22;10495;50.922;4.760;2022-10-17T02:45:50;17.90;92.80
20672;DHT22;10495;50.922;4.760;2022-10-17T02:48:36;18.00;92.60
20672;DHT22;10495;50.922;4.760;2022-10-17T02:51:08;18.20;92.40
20672;DHT22;10495;50.922;4.760;2022-10-17T02:57:11;18.20;92.10
20672;DHT22;10495;50.922;4.760;2022-10-17T02:59:39;18.20;92.00
20672;DHT22;10495;50.922;4.760;2022-10-17T03:02:06;18.30;92.10
20672;DHT22;10495;50.922;4.760;2022-10-17T03:04:32;18.30;92.10
20672;DHT22;10495;50.922;4.760;2022-10-17T03:06:58;18.30;92.10
20672;DHT22;10495;50.922;4.760;2022-10-17T03:09:23;18.20;92.20
20672;DHT22;10495;50.922;4.760;2022-10-17T03:11:49;18.10;92.30
20672;DHT22;10495;50.922;4.760;2022-10-17T03:14:15;18.00;92.70
20672;DHT22;10495;50.922;4.760;2022-10-17T03:16:41;18.10;92.40
20672;DHT22;10495;50.922;4.760;2022-10-17T03:19:07;18.40;92.30
20672;DHT22;10495;50.922;4.760;2022-10-17T03:21:33;18.40;92.10
20672;DHT22;10495;50.922;4.760;2022-10-17T03:24:01;18.40;92.10
20672;DHT22;10495;50.922;4.760;2022-10-17T03:26:26;18.40;92.20
20672;DHT22;10495;50.922;4.760;2022-10-17T03:28:54;18.50;92.20
20672;DHT22;10495;50.922;4.760;2022-10-17T03:31:19;18.40;92.20
20672;DHT22;10495;50.922;4.760;2022-10-17T03:33:45;18.50;92.20
20672;DHT22;10495;50.922;4.760;2022-10-17T03:36:16;18.60;92.00
20672;DHT22;10495;50.922;4.760;2022-10-17T03:38:43;18.60;92.10
20672;DHT22;10495;50.922;4.760;2022-10-17T03:41:09;18.50;92.10
20672;DHT22;10495;50.922;4.760;2022-10-17T03:43:35;18.60;92.00
20672;DHT22;10495;50.922;4.760;2022-10-17T03:46:01;18.70;91.80
20672;DHT22;10495;50.922;4.760;2022-10-17T03:48:29;18.90;91.50
20672;DHT22;10495;50.922;4.760;2022-10-17T03:51:03;18.90;91.30
20672;DHT22;10495;50.922;4.760;2022-10-17T03:53:29;18.80;91.60
20672;DHT22;10495;50.922;4.760;2022-10-17T03:55:56;18.70;91.60
20672;DHT22;10495;50.922;4.760;2022-10-17T03:58:22;18.70;91.50
20672;DHT22;10495;50.922;4.760;2022-10-17T04:00:47;18.70;91.40
20672;DHT22;10495;50.922;4.760;2022-10-17T04:03:13;18.80;91.40
20672;DHT22;10495;50.922;4.760;2022-10-17T04:05:39;18.70;91.30
20672;DHT22;10495;50.922;4.760;2022-10-17T04:08:04;18.60;91.70
20672;DHT22;10495;50.922;4.760;2022-10-17T04:10:30;18.60;91.70
20672;DHT22;10495;50.922;4.760;2022-10-17T04:12:55;18.40;91.70
20672;DHT22;10495;50.922;4.760;2022-10-17T04:15:21;18.30;92.00
20672;DHT22;10495;50.922;4.760;2022-10-17T04:17:47;18.40;92.00
20672;DHT22;10495;50.922;4.760;2022-10-17T04:20:12;18.30;91.90
20672;DHT22;10495;50.922;4.760;2022-10-17T04:22:38;18.60;91.60
20672;DHT22;10495;50.922;4.760;2022-10-17T04:25:03;18.50;91.60
20672;DHT22;10495;50.922;4.760;2022-10-17T04:27:29;18.40;91.70
20672;DHT22;10495;50.922;4.760;2022-10-17T04:29:55;18.40;91.80
20672;DHT22;10495;50.922;4.760;2022-10-17T04:32:20;18.40;91.70
20672;DHT22;10495;50.922;4.760;2022-10-17T04:34:49;18.40;91.70
20672;DHT22;10495;50.922;4.760;2022-10-17T04:37:15;18.40;91.90
20672;DHT22;10495;50.922;4.760;2022-10-17T04:39:41;18.30;92.00
20672;DHT22;10495;50.922;4.760;2022-10-17T04:42:06;18.20;92.10
20672;DHT22;10495;50.922;4.760;2022-10-17T04:44:32;18.20;92.10
20672;DHT22;10495;50.922;4.760;2022-10-17T04:46:59;18.10;92.40
20672;DHT22;10495;50.922;4.760;2022-10-17T04:49:25;18.20;92.00
20672;DHT22;10495;50.922;4.760;2022-10-17T04:51:50;18.30;92.10
20672;DHT22;10495;50.922;4.760;2022-10-17T04:54:16;18.40;91.90
20672;DHT22;10495;50.922;4.760;2022-10-17T04:56:42;18.30;92.00
20672;DHT22;10495;50.922;4.760;2022-10-17T04:59:08;18.40;91.90
20672;DHT22;10495;50.922;4.760;2022-10-17T05:01:33;18.40;91.70
20672;DHT22;10495;50.922;4.760;2022-10-17T05:03:59;18.40;91.80
20672;DHT22;10495;50.922;4.760;2022-10-17T05:06:25;18.40;91.80
20672;DHT22;10495;50.922;4.760;2022-10-17T05:08:52;18.40;91.80
20672;DHT22;10495;50.922;4.760;2022-10-17T05:11:20;18.50;91.80
20672;DHT22;10495;50.922;4.760;2022-10-17T05:14:00;18.30;91.90
20672;DHT22;10495;50.922;4.760;2022-10-17T05:16:26;18.30;92.10
20672;DHT22;10495;50.922;4.760;2022-10-17T05:18:54;18.40;91.80
20672;DHT22;10495;50.922;4.760;2022-10-17T05:21:22;18.60;91.60
20672;DHT22;10495;50.922;4.760;2022-10-17T05:23:48;18.60;91.50
20672;DHT22;10495;50.922;4.760;2022-10-17T05:26:14;18.60;91.50
20672;DHT22;10495;50.922;4.760;2022-10-17T05:28:39;18.60;91.50
20672;DHT22;10495;50.922;4.760;2022-10-17T05:31:06;18.50;91.50
20672;DHT22;10495;50.922;4.760;2022-10-17T05:33:32;18.60;91.40
20672;DHT22;10495;50.922;4.760;2022-10-17T05:35:58;18.70;91.10
20672;DHT22;10495;50.922;4.760;2022-10-17T05:38:25;18.70;91.10
20672;DHT22;10495;50.922;4.760;2022-10-17T05:40:50;18.60;91.20
20672;DHT22;10495;50.922;4.760;2022-10-17T05:43:16;18.60;91.30
20672;DHT22;10495;50.922;4.760;2022-10-17T05:45:42;18.50;91.30
20672;DHT22;10495;50.922;4.760;2022-10-17T05:48:07;18.70;91.10
20672;DHT22;10495;50.922;4.760;2022-10-17T05:50:35;18.60;91.10
20672;DHT22;10495;50.922;4.760;2022-10-17T05:53:01;18.70;91.10
20672;DHT22;10495;50.922;4.760;2022-10-17T05:55:27;18.70;91.10
20672;DHT22;10495;50.922;4.760;2022-10-17T05:57:52;18.40;91.40
20672;DHT22;10495;50.922;4.760;2022-10-17T06:00:19;18.40;91.70
20672;DHT22;10495;50.922;4.760;2022-10-17T06:02:45;18.40;91.60
20672;DHT22;10495;50.922;4.760;2022-10-17T06:05:11;18.40;91.50
20672;DHT22;10495;50.922;4.760;2022-10-17T06:07:37;18.40;91.70
20672;DHT22;10495;50.922;4.760;2022-10-17T06:10:03;18.40;91.70
20672;DHT22;10495;50.922;4.760;2022-10-17T06:12:28;18.40;91.70
20672;DHT22;10495;50.922;4.760;2022-10-17T06:14:54;18.40;91.60
20672;DHT22;10495;50.922;4.760;2022-10-17T06:17:20;18.50;91.40
20672;DHT22;10495;50.922;4.760;2022-10-17T06:19:45;18.50;91.60
20672;DHT22;10495;50.922;4.760;2022-10-17T06:22:11;18.50;91.40
20672;DHT22;10495;50.922;4.760;2022-10-17T06:24:36;18.50;91.50
20672;DHT22;10495;50.922;4.760;2022-10-17T06:27:02;18.40;91.60
20672;DHT22;10495;50.922;4.760;2022-10-17T06:29:28;18.50;91.50
20672;DHT22;10495;50.922;4.760;2022-10-17T06:31:53;18.40;91.40
20672;DHT22;10495;50.922;4.760;2022-10-17T06:34:19;18.50;91.50
20672;DHT22;10495;50.922;4.760;2022-10-17T06:36:45;18.60;91.20
20672;DHT22;10495;50.922;4.760;2022-10-17T06:39:11;18.70;91.10
20672;DHT22;10495;50.922;4.760;2022-10-17T06:41:36;18.60;91.20
20672;DHT22;10495;50.922;4.760;2022-10-17T06:44:02;18.70;91.20
20672;DHT22;10495;50.922;4.760;2022-10-17T06:46:33;18.70;91.10
20672;DHT22;10495;50.922;4.760;2022-10-17T06:48:59;18.80;91.00
20672;DHT22;10495;50.922;4.760;2022-10-17T06:51:25;18.90;90.80
20672;DHT22;10495;50.922;4.760;2022-10-17T06:53:50;18.90;91.00
20672;DHT22;10495;50.922;4.760;2022-10-17T06:56:16;18.90;90.90
20672;DHT22;10495;50.922;4.760;2022-10-17T06:58:41;19.00;90.90
20672;DHT22;10495;50.922;4.760;2022-10-17T07:01:11;19.10;90.80
20672;DHT22;10495;50.922;4.760;2022-10-17T07:03:37;19.10;90.80
20672;DHT22;10495;50.922;4.760;2022-10-17T07:06:03;19.10;90.80
20672;DHT22;10495;50.922;4.760;2022-10-17T07:08:29;19.20;90.60
20672;DHT22;10495;50.922;4.760;2022-10-17T07:10:55;19.40;90.60
20672;DHT22;10495;50.922;4.760;2022-10-17T07:13:21;19.50;90.20
20672;DHT22;10495;50.922;4.760;2022-10-17T07:15:47;19.50;90.30
20672;DHT22;10495;50.922;4.760;2022-10-17T07:18:13;19.60;90.30
20672;DHT22;10495;50.922;4.760;2022-10-17T07:20:38;19.70;90.30
20672;DHT22;10495;50.922;4.760;2022-10-17T07:23:04;19.80;90.50
20672;DHT22;10495;50.922;4.760;2022-10-17T07:25:30;19.80;90.00
20672;DHT22;10495;50.922;4.760;2022-10-17T07:27:56;19.80;90.00
20672;DHT22;10495;50.922;4.760;2022-10-17T07:30:22;19.80;90.10
20672;DHT22;10495;50.922;4.760;2022-10-17T07:32:48;19.70;90.00
20672;DHT22;10495;50.922;4.760;2022-10-17T07:35:17;19.80;90.00
20672;DHT22;10495;50.922;4.760;2022-10-17T07:37:43;19.80;89.20
20672;DHT22;10495;50.922;4.760;2022-10-17T07:40:09;19.70;89.40
20672;DHT22;10495;50.922;4.760;2022-10-17T07:42:36;19.70;89.60
20672;DHT22;10495;50.922;4.760;2022-10-17T07:45:02;19.80;90.00
20672;DHT22;10495;50.922;4.760;2022-10-17T07:47:28;19.90;89.40
20672;DHT22;10495;50.922;4.760;2022-10-17T07:49:55;19.80;89.30
20672;DHT22;10495;50.922;4.760;2022-10-17T07:52:21;19.90;89.40
20672;DHT22;10495;50.922;4.760;2022-10-17T07:54:47;19.90;89.40
20672;DHT22;10495;50.922;4.760;2022-10-17T07:57:12;20.10;88.90
20672;DHT22;10495;50.922;4.760;2022-10-17T07:59:38;20.00;89.10
20672;DHT22;10495;50.922;4.760;2022-10-17T08:02:04;20.00;89.00
20672;DHT22;10495;50.922;4.760;2022-10-17T08:04:29;19.90;88.90
20672;DHT22;10495;50.922;4.760;2022-10-17T08:06:55;20.00;88.80
20672;DHT22;10495;50.922;4.760;2022-10-17T08:09:21;19.90;89.10
20672;DHT22;10495;50.922;4.760;2022-10-17T08:11:46;19.90;89.30
20672;DHT22;10495;50.922;4.760;2022-10-17T08:14:12;19.80;89.30
20672;DHT22;10495;50.922;4.760;2022-10-17T08:16:39;19.90;89.30
20672;DHT22;10495;50.922;4.760;2022-10-17T08:19:05;19.80;89.40
20672;DHT22;10495;50.922;4.760;2022-10-17T08:21:33;19.80;89.30
20672;DHT22;10495;50.922;4.760;2022-10-17T08:23:59;19.80;89.50
20672;DHT22;10495;50.922;4.760;2022-10-17T08:26:27;19.80;89.50
20672;DHT22;10495;50.922;4.760;2022-10-17T08:28:53;19.70;89.70
20672;DHT22;10495;50.922;4.760;2022-10-17T08:31:19;19.70;89.90
20672;DHT22;10495;50.922;4.760;2022-10-17T08:33:46;19.70;90.00
20672;DHT22;10495;50.922;4.760;2022-10-17T08:36:13;19.70;90.20
20672;DHT22;10495;50.922;4.760;2022-10-17T08:38:39;19.60;90.20
20672;DHT22;10495;50.922;4.760;2022-10-17T08:44:05;19.70;90.20
20672;DHT22;10495;50.922;4.760;2022-10-17T08:46:38;19.50;90.40
20672;DHT22;10495;50.922;4.760;2022-10-17T08:49:13;19.40;90.80
20672;DHT22;10495;50.922;4.760;2022-10-17T08:51:48;19.40;90.90
20672;DHT22;10495;50.922;4.760;2022-10-17T08:54:19;19.40;91.00
20672;DHT22;10495;50.922;4.760;2022-10-17T08:56:51;19.50;90.80
20672;DHT22;10495;50.922;4.760;2022-10-17T08:59:27;19.50;90.70
20672;DHT22;10495;50.922;4.760;2022-10-17T09:02:20;19.50;90.90
20672;DHT22;10495;50.922;4.760;2022-10-17T09:12:59;19.50;91.20
20672;DHT22;10495;50.922;4.760;2022-10-17T09:18:30;19.70;91.00
20672;DHT22;10495;50.922;4.760;2022-10-17T09:23:46;19.90;90.80
20672;DHT22;10495;50.922;4.760;2022-10-17T09:26:13;20.10;90.60
20672;DHT22;10495;50.922;4.760;2022-10-17T09:28:40;19.90;90.60
20672;DHT22;10495;50.922;4.760;2022-10-17T09:33:44;20.00;90.50
20672;DHT22;10495;50.922;4.760;2022-10-17T09:36:15;20.10;90.50
20672;DHT22;10495;50.922;4.760;2022-10-17T09:38:52;20.20;90.20
20672;DHT22;10495;50.922;4.760;2022-10-17T09:41:22;20.30;90.00
20672;DHT22;10495;50.922;4.760;2022-10-17T09:43:51;20.00;90.30
20672;DHT22;10495;50.922;4.760;2022-10-17T09:46:25;19.70;90.70
20672;DHT22;10495;50.922;4.760;2022-10-17T09:51:36;19.80;90.80
20672;DHT22;10495;50.922;4.760;2022-10-17T09:54:07;19.80;90.80
20672;DHT22;10495;50.922;4.760;2022-10-17T09:57:05;19.70;90.80
20672;DHT22;10495;50.922;4.760;2022-10-17T09:59:39;19.50;91.10
20672;DHT22;10495;50.922;4.760;2022-10-17T10:02:17;19.40;91.30
20672;DHT22;10495;50.922;4.760;2022-10-17T10:05:00;19.40;91.40
20672;DHT22;10495;50.922;4.760;2022-10-17T10:07:29;19.40;91.50
20672;DHT22;10495;50.922;4.760;2022-10-17T10:09:55;19.40;91.70
20672;DHT22;10495;50.922;4.760;2022-10-17T10:12:31;19.50;91.70
20672;DHT22;10495;50.922;4.760;2022-10-17T10:14:58;19.50;91.80
20672;DHT22;10495;50.922;4.760;2022-10-17T10:19:54;19.60;91.90
20672;DHT22;10495;50.922;4.760;2022-10-17T10:22:21;19.60;91.90
20672;DHT22;10495;50.922;4.760;2022-10-17T10:25:14;19.60;91.90
20672;DHT22;10495;50.922;4.760;2022-10-17T10:27:42;19.70;91.70
20672;DHT22;10495;50.922;4.760;2022-10-17T10:30:23;19.70;92.00
20672;DHT22;10495;50.922;4.760;2022-10-17T10:32:49;19.70;92.00
20672;DHT22;10495;50.922;4.760;2022-10-17T10:35:24;19.80;92.00
20672;DHT22;10495;50.922;4.760;2022-10-17T10:37:56;19.70;92.20
20672;DHT22;10495;50.922;4.760;2022-10-17T10:40:45;19.80;92.30
20672;DHT22;10495;50.922;4.760;2022-10-17T10:43:22;19.80;92.10
20672;DHT22;10495;50.922;4.760;2022-10-17T10:45:49;19.90;92.10
20672;DHT22;10495;50.922;4.760;2022-10-17T10:56:32;20.00;92.30
20672;DHT22;10495;50.922;4.760;2022-10-17T11:01:57;20.10;92.30
20672;DHT22;10495;50.922;4.760;2022-10-17T11:07:12;20.20;92.40
20672;DHT22;10495;50.922;4.760;2022-10-17T11:12:35;20.20;92.40
20672;DHT22;10495;50.922;4.760;2022-10-17T11:15:23;20.20;92.40
20672;DHT22;10495;50.922;4.760;2022-10-17T11:25:50;20.20;92.30
20672;DHT22;10495;50.922;4.760;2022-10-17T11:28:20;20.30;92.30
20672;DHT22;10495;50.922;4.760;2022-10-17T11:31:02;20.30;92.20
20672;DHT22;10495;50.922;4.760;2022-10-17T11:33:59;20.30;92.10
20672;DHT22;10495;50.922;4.760;2022-10-17T11:36:31;20.50;91.70
20672;DHT22;10495;50.922;4.760;2022-10-17T11:39:01;20.50;91.60
20672;DHT22;10495;50.922;4.760;2022-10-17T11:44:02;20.50;91.50
20672;DHT22;10495;50.922;4.760;2022-10-17T11:46:29;20.50;91.30
20672;DHT22;10495;50.922;4.760;2022-10-17T11:51:24;20.20;91.50
20672;DHT22;10495;50.922;4.760;2022-10-17T11:54:03;20.20;91.60
20672;DHT22;10495;50.922;4.760;2022-10-17T12:02:11;20.50;91.30
20672;DHT22;10495;50.922;4.760;2022-10-17T12:05:15;20.50;91.20
20672;DHT22;10495;50.922;4.760;2022-10-17T12:07:47;20.50;91.40
20672;DHT22;10495;50.922;4.760;2022-10-17T12:10:44;20.50;91.40
20672;DHT22;10495;50.922;4.760;2022-10-17T12:19:11;20.60;91.30
20672;DHT22;10495;50.922;4.760;2022-10-17T12:21:59;20.50;91.50
20672;DHT22;10495;50.922;4.760;2022-10-17T12:26:55;20.50;91.50
20672;DHT22;10495;50.922;4.760;2022-10-17T12:29:28;20.60;91.40
20672;DHT22;10495;50.922;4.760;2022-10-17T12:32:11;20.50;91.50
20672;DHT22;10495;50.922;4.760;2022-10-17T12:34:37;20.50;91.50
20672;DHT22;10495;50.922;4.760;2022-10-17T12:37:03;20.50;91.50
20672;DHT22;10495;50.922;4.760;2022-10-17T12:41:54;20.50;91.50
20672;DHT22;10495;50.922;4.760;2022-10-17T12:46:50;20.40;91.70
20672;DHT22;10495;50.922;4.760;2022-10-17T12:49:23;20.50;91.60
20672;DHT22;10495;50.922;4.760;2022-10-17T12:54:43;20.50;91.60
20672;DHT22;10495;50.922;4.760;2022-10-17T12:59:52;20.50;91.70
20672;DHT22;10495;50.922;4.760;2022-10-17T13:02:20;20.50;91.70
20672;DHT22;10495;50.922;4.760;2022-10-17T13:04:49;20.50;91.80
20672;DHT22;10495;50.922;4.760;2022-10-17T13:07:19;20.60;92.00
20672;DHT22;10495;50.922;4.760;2022-10-17T13:09:46;20.60;91.70
20672;DHT22;10495;50.922;4.760;2022-10-17T13:12:24;20.50;91.70
20672;DHT22;10495;50.922;4.760;2022-10-17T13:14:52;20.60;91.70
20672;DHT22;10495;50.922;4.760;2022-10-17T13:17:25;20.60;91.80
20672;DHT22;10495;50.922;4.760;2022-10-17T13:19:52;20.60;91.90
20672;DHT22;10495;50.922;4.760;2022-10-17T13:22:20;20.60;91.90
20672;DHT22;10495;50.922;4.760;2022-10-17T13:24:47;20.60;92.00
20672;DHT22;10495;50.922;4.760;2022-10-17T13:27:28;20.60;91.90
20672;DHT22;10495;50.922;4.760;2022-10-17T13:29:56;20.70;91.90
20672;DHT22;10495;50.922;4.760;2022-10-17T13:32:24;20.60;92.20
20672;DHT22;10495;50.922;4.760;2022-10-17T13:35:07;20.70;92.10
20672;DHT22;10495;50.922;4.760;2022-10-17T13:37:34;20.80;92.00
20672;DHT22;10495;50.922;4.760;2022-10-17T13:40:00;20.80;92.10
20672;DHT22;10495;50.922;4.760;2022-10-17T13:42:28;20.90;91.80
20672;DHT22;10495;50.922;4.760;2022-10-17T13:44:55;20.90;91.80
20672;DHT22;10495;50.922;4.760;2022-10-17T13:47:27;20.80;91.70
20672;DHT22;10495;50.922;4.760;2022-10-17T13:49:53;20.80;91.80
20672;DHT22;10495;50.922;4.760;2022-10-17T13:52:22;20.80;91.60
20672;DHT22;10495;50.922;4.760;2022-10-17T13:54:50;21.00;91.50
20672;DHT22;10495;50.922;4.760;2022-10-17T13:57:27;20.90;91.40
20672;DHT22;10495;50.922;4.760;2022-10-17T14:00:02;20.90;91.50
20672;DHT22;10495;50.922;4.760;2022-10-17T14:02:33;20.90;91.60
20672;DHT22;10495;50.922;4.760;2022-10-17T14:07:43;20.90;91.40
20672;DHT22;10495;50.922;4.760;2022-10-17T14:10:23;20.90;91.40
20672;DHT22;10495;50.922;4.760;2022-10-17T14:12:50;21.00;91.30
20672;DHT22;10495;50.922;4.760;2022-10-17T14:15:17;20.90;91.30
20672;DHT22;10495;50.922;4.760;2022-10-17T14:17:43;20.90;90.90
20672;DHT22;10495;50.922;4.760;2022-10-17T14:20:20;20.90;90.70
20672;DHT22;10495;50.922;4.760;2022-10-17T14:22:46;20.90;90.80
20672;DHT22;10495;50.922;4.760;2022-10-17T14:28:00;20.70;90.90
20672;DHT22;10495;50.922;4.760;2022-10-17T14:30:33;20.70;91.10
20672;DHT22;10495;50.922;4.760;2022-10-17T14:33:01;20.60;90.90
20672;DHT22;10495;50.922;4.760;2022-10-17T14:35:28;20.50;91.00
20672;DHT22;10495;50.922;4.760;2022-10-17T14:37:58;20.50;91.00
20672;DHT22;10495;50.922;4.760;2022-10-17T14:40:27;20.50;91.10
20672;DHT22;10495;50.922;4.760;2022-10-17T14:42:56;20.30;91.50
20672;DHT22;10495;50.922;4.760;2022-10-17T14:45:36;20.40;91.30
20672;DHT22;10495;50.922;4.760;2022-10-17T14:48:11;20.40;91.30
20672;DHT22;10495;50.922;4.760;2022-10-17T14:50:39;20.50;91.10
20672;DHT22;10495;50.922;4.760;2022-10-17T14:55:38;20.60;91.50
20672;DHT22;10495;50.922;4.760;2022-10-17T14:58:24;20.60;91.30
20672;DHT22;10495;50.922;4.760;2022-10-17T15:00:52;20.60;91.20
20672;DHT22;10495;50.922;4.760;2022-10-17T15:03:17;20.60;91.20
20672;DHT22;10495;50.922;4.760;2022-10-17T15:05:44;20.70;91.30
20672;DHT22;10495;50.922;4.760;2022-10-17T15:08:21;20.70;91.30
20672;DHT22;10495;50.922;4.760;2022-10-17T15:10:47;20.80;91.20
20672;DHT22;10495;50.922;4.760;2022-10-17T15:13:13;20.70;91.30
20672;DHT22;10495;50.922;4.760;2022-10-17T15:15:39;20.70;91.10
20672;DHT22;10495;50.922;4.760;2022-10-17T15:18:06;20.70;91.10
20672;DHT22;10495;50.922;4.760;2022-10-17T15:20:34;20.60;91.00
20672;DHT22;10495;50.922;4.760;2022-10-17T15:23:01;20.60;91.00
20672;DHT22;10495;50.922;4.760;2022-10-17T15:25:28;20.60;91.10
20672;DHT22;10495;50.922;4.760;2022-10-17T15:27:54;20.50;91.00
20672;DHT22;10495;50.922;4.760;2022-10-17T15:30:29;20.40;91.10
20672;DHT22;10495;50.922;4.760;2022-10-17T15:32:56;20.40;91.10
20672;DHT22;10495;50.922;4.760;2022-10-17T15:35:23;20.40;91.10
20672;DHT22;10495;50.922;4.760;2022-10-17T15:37:49;20.40;91.10
20672;DHT22;10495;50.922;4.760;2022-10-17T15:40:24;20.40;91.10
20672;DHT22;10495;50.922;4.760;2022-10-17T15:42:50;20.40;91.00
20672;DHT22;10495;50.922;4.760;2022-10-17T15:45:18;20.30;91.00
20672;DHT22;10495;50.922;4.760;2022-10-17T15:47:57;20.20;91.00
20672;DHT22;10495;50.922;4.760;2022-10-17T15:50:24;20.20;91.00
20672;DHT22;10495;50.922;4.760;2022-10-17T15:52:50;20.10;91.00
20672;DHT22;10495;50.922;4.760;2022-10-17T15:55:17;20.10;91.00
20672;DHT22;10495;50.922;4.760;2022-10-17T15:57:44;20.10;91.00
20672;DHT22;10495;50.922;4.760;2022-10-17T16:00:17;20.10;91.00
20672;DHT22;10495;50.922;4.760;2022-10-17T16:02:43;20.10;90.90
20672;DHT22;10495;50.922;4.760;2022-10-17T16:05:23;20.10;90.90
20672;DHT22;10495;50.922;4.760;2022-10-17T16:07:51;20.10;91.00
20672;DHT22;10495;50.922;4.760;2022-10-17T16:10:17;20.00;90.90
20672;DHT22;10495;50.922;4.760;2022-10-17T16:12:43;20.00;90.90
20672;DHT22;10495;50.922;4.760;2022-10-17T16:17:42;20.00;90.90
20672;DHT22;10495;50.922;4.760;2022-10-17T16:20:09;19.90;91.00
20672;DHT22;10495;50.922;4.760;2022-10-17T16:22:35;19.90;91.00
20672;DHT22;10495;50.922;4.760;2022-10-17T16:25:05;19.90;91.10
20672;DHT22;10495;50.922;4.760;2022-10-17T16:27:35;19.80;91.00
20672;DHT22;10495;50.922;4.760;2022-10-17T16:30:02;19.80;91.10
20672;DHT22;10495;50.922;4.760;2022-10-17T16:32:28;19.70;91.10
20672;DHT22;10495;50.922;4.760;2022-10-17T16:34:53;19.70;91.10
20672;DHT22;10495;50.922;4.760;2022-10-17T16:37:19;19.60;91.50
20672;DHT22;10495;50.922;4.760;2022-10-17T16:39:45;19.50;91.30
20672;DHT22;10495;50.922;4.760;2022-10-17T16:42:19;19.50;91.50
20672;DHT22;10495;50.922;4.760;2022-10-17T16:44:47;19.50;91.40
20672;DHT22;10495;50.922;4.760;2022-10-17T16:47:12;19.50;91.50
20672;DHT22;10495;50.922;4.760;2022-10-17T16:49:38;19.50;91.40
20672;DHT22;10495;50.922;4.760;2022-10-17T16:52:04;19.50;91.50
20672;DHT22;10495;50.922;4.760;2022-10-17T16:54:29;19.50;91.50
20672;DHT22;10495;50.922;4.760;2022-10-17T16:56:55;19.40;91.60
20672;DHT22;10495;50.922;4.760;2022-10-17T16:59:23;19.30;91.80
20672;DHT22;10495;50.922;4.760;2022-10-17T17:01:49;19.40;91.80
20672;DHT22;10495;50.922;4.760;2022-10-17T17:04:15;19.30;91.90
20672;DHT22;10495;50.922;4.760;2022-10-17T17:06:41;19.30;91.80
20672;DHT22;10495;50.922;4.760;2022-10-17T17:09:06;19.20;92.10
20672;DHT22;10495;50.922;4.760;2022-10-17T17:11:34;19.20;92.20
20672;DHT22;10495;50.922;4.760;2022-10-17T17:14:00;19.10;92.50
20672;DHT22;10495;50.922;4.760;2022-10-17T17:16:30;19.30;92.00
20672;DHT22;10495;50.922;4.760;2022-10-17T17:18:59;19.10;92.10
20672;DHT22;10495;50.922;4.760;2022-10-17T17:21:25;19.10;92.10
20672;DHT22;10495;50.922;4.760;2022-10-17T17:23:52;19.00;92.20
20672;DHT22;10495;50.922;4.760;2022-10-17T17:26:20;18.90;92.20
20672;DHT22;10495;50.922;4.760;2022-10-17T17:28:47;18.80;92.30
20672;DHT22;10495;50.922;4.760;2022-10-17T17:31:20;18.70;92.40
20672;DHT22;10495;50.922;4.760;2022-10-17T17:33:49;18.60;92.40
20672;DHT22;10495;50.922;4.760;2022-10-17T17:36:22;18.50;92.30
20672;DHT22;10495;50.922;4.760;2022-10-17T17:38:49;18.50;92.20
20672;DHT22;10495;50.922;4.760;2022-10-17T17:41:17;18.60;92.20